Lady Mary — WCY4834 — position and weather

sailwx.info

Track history (hours):
 
Tides and Currents Weather Stations Pressure Air Temp Water Temp Dewpoint Dewpoint Depression Visibility Wind Speed Wind Dir Waves Ship Positions

Lady Mary

Owner: BLACKMAN, JOHN H, SEATTLE, WA. More information available from US FCC via Universal Licensing System and Coast Guard Vessel Documentation Center.

Last reported at 2016-Jul-27 18:32 UTC. Time now 2016-Jul-27 19:10 UTC.
Position N 47°38' W 122°20'.

Length 26 m.

Type: Passenger vessel. MMSI: 367013060.

Date/timePositionNaut miles runAvg speedWind from/ knotsBaromVisibWave heightAir tempDewpointWater temp
2016-Jul-27 18:32N 47°38' W 122°20'5 5.2
2016-Jul-27 17:33N 47°40' W 122°14'1 0.8
2016-Jul-27 16:30N 47°40' W 122°13'0 0.0
2016-Jul-27 15:30N 47°40' W 122°13'0 0.0
2016-Jul-27 14:31N 47°40' W 122°13'0 0.0
2016-Jul-27 13:32N 47°40' W 122°13'0 0.0
2016-Jul-27 12:29N 47°40' W 122°13'0 0.0
2016-Jul-27 11:33N 47°40' W 122°13'0 0.0
2016-Jul-27 10:31N 47°40' W 122°13'0 0.0
2016-Jul-27 09:31N 47°40' W 122°13'0 0.0
2016-Jul-27 08:29N 47°40' W 122°13'0 0.0
2016-Jul-27 07:33N 47°40' W 122°13'0 0.0
2016-Jul-27 06:33N 47°40' W 122°13'0 0.0
2016-Jul-27 05:33N 47°40' W 122°13'6 5.7
2016-Jul-27 04:33N 47°39' W 122°21'2 2.5
2016-Jul-27 03:33N 47°40' W 122°24'3 3.5
2016-Jul-27 02:33N 47°37' W 122°22'1 0.6
2016-Jul-27 01:33N 47°37' W 122°21'3 3.3
2016-Jul-27 00:33N 47°33' W 122°21'3 3.3
2016-Jul-26 23:33N 47°37' W 122°21'0 0.0
2016-Jul-26 22:33N 47°37' W 122°21'0 0.0
2016-Jul-26 21:33N 47°37' W 122°21'2 2.4
2016-Jul-26 20:33N 47°38' W 122°24'2 2.3
2016-Jul-26 19:33N 47°40' W 122°24'7 6.3
2016-Jul-26 18:31N 47°40' W 122°14'1 1.3
2016-Jul-26 17:33N 47°40' W 122°13'0 0.0
2016-Jul-26 16:33N 47°40' W 122°13'0 0.0
2016-Jul-26 15:33N 47°40' W 122°13'0 0.0
2016-Jul-26 14:33N 47°40' W 122°13'0 0.0
2016-Jul-26 13:34N 47°40' W 122°13'0 0.0
2016-Jul-26 12:33N 47°40' W 122°13'0 0.0
2016-Jul-26 11:33N 47°40' W 122°13'0 0.0
2016-Jul-26 10:33N 47°40' W 122°13'0 0.0
2016-Jul-26 09:33N 47°40' W 122°13'0 0.0
2016-Jul-26 08:33N 47°40' W 122°13'0 0.0
2016-Jul-26 07:33N 47°40' W 122°13'0 0.0
2016-Jul-26 06:33N 47°40' W 122°13'0 0.0
2016-Jul-26 05:33N 47°40' W 122°13'0 0.0
2016-Jul-26 04:33N 47°40' W 122°13'3 3.5
2016-Jul-26 03:33N 47°38' W 122°16'3 2.6
2016-Jul-26 02:33N 47°36' W 122°14'4 4.1
2016-Jul-26 01:33N 47°40' W 122°13'0 0.0
2016-Jul-26 00:31N 47°40' W 122°13'0 0.0
2016-Jul-25 23:31N 47°40' W 122°13'0 0.0
2016-Jul-25 22:32N 47°40' W 122°13'0 0.0
2016-Jul-25 21:33N 47°40' W 122°13'0 0.0
2016-Jul-25 20:30N 47°40' W 122°13'3 3.3
2016-Jul-25 19:32N 47°38' W 122°15'3 3.2
2016-Jul-25 18:32N 47°40' W 122°13'0 0.0
2016-Jul-25 17:16N 47°40' W 122°13'0 0.0
2016-Jul-25 16:31N 47°40' W 122°13'0 0.0
2016-Jul-25 15:32N 47°40' W 122°13'0 0.0
2016-Jul-25 14:33N 47°40' W 122°13'0 0.0
2016-Jul-25 13:33N 47°40' W 122°13'0 0.0
2016-Jul-25 12:31N 47°40' W 122°13'0 0.0
2016-Jul-25 11:32N 47°40' W 122°13'0 0.0
2016-Jul-25 10:29N 47°40' W 122°13'0 0.0
2016-Jul-25 09:33N 47°40' W 122°13'0 0.0
2016-Jul-25 08:31N 47°40' W 122°13'0 0.0
2016-Jul-25 07:31N 47°40' W 122°13'0 0.0
2016-Jul-25 06:32N 47°40' W 122°13'0 0.0
2016-Jul-25 05:27N 47°40' W 122°13'0 0.0
2016-Jul-25 04:33N 47°40' W 122°13'0 0.0
2016-Jul-25 03:31N 47°40' W 122°13'0 0.0
2016-Jul-25 02:32N 47°40' W 122°13'0 0.0
2016-Jul-25 01:32N 47°40' W 122°13'0 0.0
2016-Jul-25 00:33N 47°40' W 122°13'4 3.9
2016-Jul-24 23:33N 47°37' W 122°14'4 3.8
2016-Jul-24 22:32N 47°40' W 122°13'4 4.0
2016-Jul-24 21:32N 47°37' W 122°14'4 3.9
2016-Jul-24 20:29N 47°40' W 122°13'4 4.2
2016-Jul-24 19:33N 47°37' W 122°14'4 3.7
2016-Jul-24 18:29N 47°40' W 122°13'1 1.5
2016-Jul-24 17:29N 47°41' W 122°15'1 1.5
2016-Jul-24 16:31N 47°40' W 122°13'0 0.0
2016-Jul-24 15:29N 47°40' W 122°13'0 0.0
2016-Jul-24 14:32N 47°40' W 122°13'0 0.0
2016-Jul-24 13:33N 47°40' W 122°13'0 0.0
2016-Jul-24 12:31N 47°40' W 122°13'0 0.0
2016-Jul-24 11:31N 47°40' W 122°13'0 0.0
2016-Jul-24 10:32N 47°40' W 122°13'0 0.0
2016-Jul-24 09:33N 47°40' W 122°13'0 0.0
2016-Jul-24 08:27N 47°40' W 122°13'0 0.0
2016-Jul-24 07:31N 47°40' W 122°13'0 0.0
2016-Jul-24 06:32N 47°40' W 122°13'0 0.0
2016-Jul-24 05:32N 47°40' W 122°13'0 0.0
2016-Jul-24 04:33N 47°40' W 122°13'0 0.0
2016-Jul-24 03:31N 47°40' W 122°13'0 0.0
2016-Jul-24 02:31N 47°40' W 122°13'0 0.0
2016-Jul-24 01:32N 47°40' W 122°13'0 0.0
2016-Jul-24 00:27N 47°40' W 122°13'4 4.4
2016-Jul-23 23:33N 47°37' W 122°14'4 3.9
2016-Jul-23 22:31N 47°40' W 122°13'4 4.1
2016-Jul-23 21:33N 47°37' W 122°14'4 3.8
2016-Jul-23 20:31N 47°40' W 122°13'4 4.2
2016-Jul-23 19:33N 47°36' W 122°14'4 4.1
2016-Jul-23 18:33N 47°40' W 122°13'0 0.0
2016-Jul-23 17:31N 47°40' W 122°13'0 0.0
2016-Jul-23 16:32N 47°40' W 122°13'0 0.0
2016-Jul-23 15:32N 47°40' W 122°13'0 0.0
2016-Jul-23 14:33N 47°40' W 122°13'0 0.0
2016-Jul-23 13:31N 47°40' W 122°13'0 0.0
2016-Jul-23 12:20N 47°40' W 122°13'0 0.0
2016-Jul-23 11:32N 47°40' W 122°13'0 0.0
2016-Jul-23 10:33N 47°40' W 122°13'0 0.0
2016-Jul-23 09:33N 47°40' W 122°13'0 0.0
2016-Jul-23 08:31N 47°40' W 122°13'0 0.0
2016-Jul-23 07:32N 47°40' W 122°13'0 0.0
2016-Jul-23 06:32N 47°40' W 122°13'2 0.8
2016-Jul-23 04:33N 47°39' W 122°14'3 2.9
2016-Jul-23 03:30N 47°39' W 122°18'1 0.9
2016-Jul-23 02:33N 47°39' W 122°17'3 3.5
2016-Jul-23 01:33N 47°40' W 122°13'0 0.0
2016-Jul-23 00:33N 47°40' W 122°13'0 0.2
2016-Jul-22 23:33N 47°40' W 122°13'5 5.5
2016-Jul-22 22:33N 47°39' W 122°20'1 1.0
2016-Jul-22 21:33N 47°39' W 122°19'5 4.7
2016-Jul-22 20:33N 47°40' W 122°13'4 4.1
2016-Jul-22 19:31N 47°36' W 122°14'4 4.4
2016-Jul-22 18:33N 47°40' W 122°13'0 0.0
2016-Jul-22 17:33N 47°40' W 122°13'0 0.0
2016-Jul-22 16:33N 47°40' W 122°13'0 0.0
2016-Jul-22 15:33N 47°40' W 122°13'0 0.0
2016-Jul-22 14:33N 47°40' W 122°13'0 0.0
2016-Jul-22 13:33N 47°40' W 122°13'0 0.0
2016-Jul-22 12:33N 47°40' W 122°13'0 0.0
2016-Jul-22 11:33N 47°40' W 122°13'0 0.0
2016-Jul-22 10:33N 47°40' W 122°13'0 0.0
2016-Jul-22 09:33N 47°40' W 122°13'0 0.0
2016-Jul-22 08:33N 47°40' W 122°13'0 0.0
2016-Jul-22 07:33N 47°40' W 122°13'0 0.0
2016-Jul-22 04:33N 47°40' W 122°13'0 0.0
2016-Jul-22 03:33N 47°40' W 122°13'0 0.0
2016-Jul-22 02:33N 47°40' W 122°13'0 0.0
2016-Jul-22 01:33N 47°40' W 122°13'0 0.0
2016-Jul-22 00:33N 47°40' W 122°13'3 2.8
2016-Jul-21 23:33N 47°38' W 122°15'3 2.8
2016-Jul-21 22:33N 47°40' W 122°13'0 0.0
2016-Jul-21 21:33N 47°40' W 122°13'0 0.0
2016-Jul-21 20:33N 47°40' W 122°13'3 3.4
2016-Jul-21 19:33N 47°37' W 122°15'3 3.4
2016-Jul-21 18:33N 47°40' W 122°13'1 1.0
2016-Jul-21 17:33N 47°40' W 122°14'1 1.0
2016-Jul-21 16:32N 47°40' W 122°13'0 0.0
2016-Jul-21 15:29N 47°40' W 122°13'0 0.0
2016-Jul-21 14:27N 47°40' W 122°13'0 0.0
2016-Jul-21 13:31N 47°40' W 122°13'0 0.0
2016-Jul-21 12:31N 47°40' W 122°13'0 0.0
2016-Jul-21 11:32N 47°40' W 122°13'0 0.0
2016-Jul-21 10:33N 47°40' W 122°13'0 0.0
2016-Jul-21 09:33N 47°40' W 122°13'0 0.0
2016-Jul-21 08:31N 47°40' W 122°13'0 0.0
2016-Jul-21 07:32N 47°40' W 122°13'0 0.0
2016-Jul-21 06:32N 47°40' W 122°13'0 0.0
2016-Jul-21 05:33N 47°40' W 122°13'0 0.0
2016-Jul-21 04:31N 47°40' W 122°13'0 0.0
2016-Jul-21 03:31N 47°40' W 122°13'0 0.0
2016-Jul-21 02:26N 47°40' W 122°13'0 0.0
2016-Jul-21 01:19N 47°40' W 122°13'0 0.0
2016-Jul-21 00:33N 47°40' W 122°13'3 3.5
2016-Jul-20 23:33N 47°37' W 122°15'3 3.5
2016-Jul-20 22:33N 47°40' W 122°13'0 0.0
2016-Jul-20 21:33N 47°40' W 122°13'0 0.0
2016-Jul-20 20:33N 47°40' W 122°13'4 4.2
2016-Jul-20 19:33N 47°36' W 122°14'4 4.2
2016-Jul-20 18:33N 47°40' W 122°13'0 0.0
2016-Jul-20 17:31N 47°40' W 122°13'0 0.0
2016-Jul-20 16:31N 47°40' W 122°13'0 0.0
2016-Jul-20 15:32N 47°40' W 122°13'0 0.0
2016-Jul-20 14:33N 47°40' W 122°13'0 0.0
2016-Jul-20 13:33N 47°40' W 122°13'0 0.0
2016-Jul-20 12:31N 47°40' W 122°13'0 0.0
2016-Jul-20 11:29N 47°40' W 122°13'0 0.0
2016-Jul-20 10:32N 47°40' W 122°13'0 0.0
2016-Jul-20 09:33N 47°40' W 122°13'0 0.0
2016-Jul-20 08:31N 47°40' W 122°13'0 0.0
2016-Jul-20 07:31N 47°40' W 122°13'0 0.0
2016-Jul-20 06:32N 47°40' W 122°13'0 0.0
2016-Jul-20 05:30N 47°40' W 122°13'0 0.0
2016-Jul-20 04:33N 47°40' W 122°13'0 0.0
2016-Jul-20 03:31N 47°40' W 122°13'0 0.0
2016-Jul-20 02:29N 47°40' W 122°13'0 0.0
2016-Jul-20 01:33N 47°40' W 122°13'0 0.0
2016-Jul-20 00:30N 47°40' W 122°13'0 0.0
2016-Jul-19 23:31N 47°40' W 122°13'0 0.0
2016-Jul-19 22:32N 47°40' W 122°13'0 0.0
2016-Jul-19 21:32N 47°40' W 122°13'0 0.0
2016-Jul-19 20:33N 47°40' W 122°13'4 4.1
2016-Jul-19 19:32N 47°36' W 122°14'4 4.3
2016-Jul-19 18:33N 47°40' W 122°13'0 0.0
2016-Jul-19 17:28N 47°40' W 122°13'0 0.0
2016-Jul-19 16:29N 47°40' W 122°13'0 0.0
2016-Jul-19 15:32N 47°40' W 122°13'0 0.0
2016-Jul-19 14:33N 47°40' W 122°13'0 0.0
2016-Jul-19 13:31N 47°40' W 122°13'0 0.0
2016-Jul-19 12:31N 47°40' W 122°13'0 0.0
2016-Jul-19 11:32N 47°40' W 122°13'0 0.0
2016-Jul-19 10:33N 47°40' W 122°13'0 0.0
2016-Jul-19 09:33N 47°40' W 122°13'0 0.0
2016-Jul-19 08:31N 47°40' W 122°13'0 0.0
2016-Jul-19 07:32N 47°40' W 122°13'0 0.0
2016-Jul-19 04:28N 47°40' W 122°13'0 0.0
2016-Jul-19 03:31N 47°40' W 122°13'0 0.0
2016-Jul-19 02:32N 47°40' W 122°13'0 0.0
2016-Jul-19 01:33N 47°40' W 122°13'0 0.0
2016-Jul-19 00:33N 47°40' W 122°13'0 0.0
2016-Jul-18 23:28N 47°40' W 122°13'0 0.0
2016-Jul-18 22:32N 47°40' W 122°13'0 0.0
2016-Jul-18 21:29N 47°40' W 122°13'0 0.0
2016-Jul-18 20:33N 47°40' W 122°13'4 3.8
2016-Jul-18 19:33N 47°37' W 122°15'4 3.8
2016-Jul-18 18:33N 47°40' W 122°13'2 2.4
2016-Jul-18 17:33N 47°39' W 122°16'6 5.7
2016-Jul-18 16:33N 47°40' W 122°24'2 2.0
2016-Jul-18 15:33N 47°38' W 122°25'4 0.3
2016-Jul-18 03:33N 47°36' W 122°20'5 4.6
2016-Jul-18 02:34N 47°34' W 122°26'9 9.0
2016-Jul-18 01:34N 47°26' W 122°31'8 8.5
2016-Jul-18 00:34N 47°17' W 122°28'2 2.4
2016-Jul-17 23:33N 47°17' W 122°25'1 1.5
2016-Jul-17 22:34N 47°16' W 122°26'0 0.0
2016-Jul-17 21:23N 47°16' W 122°26'2 1.8
2016-Jul-17 20:29N 47°16' W 122°24'2 1.7
2016-Jul-17 19:33N 47°16' W 122°26'0 0.0
2016-Jul-17 18:33N 47°16' W 122°26'  
Track history (hours):
 
Tides and Currents Weather Stations Pressure Air Temp Water Temp Dewpoint Dewpoint Depression Visibility Wind Speed Wind Dir Waves Ship Positions

Lady Mary

Owner: BLACKMAN, JOHN H, SEATTLE, WA. More information available from US FCC via Universal Licensing System and Coast Guard Vessel Documentation Center.

Last reported at 2016-Jul-27 18:32 UTC. Time now 2016-Jul-27 19:10 UTC.
Position N 47°38' W 122°20'.

Length 26 m.

Type: Passenger vessel. MMSI: 367013060.

Date/timePositionNaut miles runAvg speedWind from/ knotsBaromVisibWave heightAir tempDewpointWater temp
2016-Jul-27 18:32N 47°38' W 122°20'5 5.2
2016-Jul-27 17:33N 47°40' W 122°14'1 0.8
2016-Jul-27 16:30N 47°40' W 122°13'0 0.0
2016-Jul-27 15:30N 47°40' W 122°13'0 0.0
2016-Jul-27 14:31N 47°40' W 122°13'0 0.0
2016-Jul-27 13:32N 47°40' W 122°13'0 0.0
2016-Jul-27 12:29N 47°40' W 122°13'0 0.0
2016-Jul-27 11:33N 47°40' W 122°13'0 0.0
2016-Jul-27 10:31N 47°40' W 122°13'0 0.0
2016-Jul-27 09:31N 47°40' W 122°13'0 0.0
2016-Jul-27 08:29N 47°40' W 122°13'0 0.0
2016-Jul-27 07:33N 47°40' W 122°13'0 0.0
2016-Jul-27 06:33N 47°40' W 122°13'0 0.0
2016-Jul-27 05:33N 47°40' W 122°13'6 5.7
2016-Jul-27 04:33N 47°39' W 122°21'2 2.5
2016-Jul-27 03:33N 47°40' W 122°24'3 3.5
2016-Jul-27 02:33N 47°37' W 122°22'1 0.6
2016-Jul-27 01:33N 47°37' W 122°21'3 3.3
2016-Jul-27 00:33N 47°33' W 122°21'3 3.3
2016-Jul-26 23:33N 47°37' W 122°21'0 0.0
2016-Jul-26 22:33N 47°37' W 122°21'0 0.0
2016-Jul-26 21:33N 47°37' W 122°21'2 2.4
2016-Jul-26 20:33N 47°38' W 122°24'2 2.3
2016-Jul-26 19:33N 47°40' W 122°24'7 6.3
2016-Jul-26 18:31N 47°40' W 122°14'1 1.3
2016-Jul-26 17:33N 47°40' W 122°13'0 0.0
2016-Jul-26 16:33N 47°40' W 122°13'0 0.0
2016-Jul-26 15:33N 47°40' W 122°13'0 0.0
2016-Jul-26 14:33N 47°40' W 122°13'0 0.0
2016-Jul-26 13:34N 47°40' W 122°13'0 0.0
2016-Jul-26 12:33N 47°40' W 122°13'0 0.0
2016-Jul-26 11:33N 47°40' W 122°13'0 0.0
2016-Jul-26 10:33N 47°40' W 122°13'0 0.0
2016-Jul-26 09:33N 47°40' W 122°13'0 0.0
2016-Jul-26 08:33N 47°40' W 122°13'0 0.0
2016-Jul-26 07:33N 47°40' W 122°13'0 0.0
2016-Jul-26 06:33N 47°40' W 122°13'0 0.0
2016-Jul-26 05:33N 47°40' W 122°13'0 0.0
2016-Jul-26 04:33N 47°40' W 122°13'3 3.5
2016-Jul-26 03:33N 47°38' W 122°16'3 2.6
2016-Jul-26 02:33N 47°36' W 122°14'4 4.1
2016-Jul-26 01:33N 47°40' W 122°13'0 0.0
2016-Jul-26 00:31N 47°40' W 122°13'0 0.0
2016-Jul-25 23:31N 47°40' W 122°13'0 0.0
2016-Jul-25 22:32N 47°40' W 122°13'0 0.0
2016-Jul-25 21:33N 47°40' W 122°13'0 0.0
2016-Jul-25 20:30N 47°40' W 122°13'3 3.3
2016-Jul-25 19:32N 47°38' W 122°15'3 3.2
2016-Jul-25 18:32N 47°40' W 122°13'0 0.0
2016-Jul-25 17:16N 47°40' W 122°13'0 0.0
2016-Jul-25 16:31N 47°40' W 122°13'0 0.0
2016-Jul-25 15:32N 47°40' W 122°13'0 0.0
2016-Jul-25 14:33N 47°40' W 122°13'0 0.0
2016-Jul-25 13:33N 47°40' W 122°13'0 0.0
2016-Jul-25 12:31N 47°40' W 122°13'0 0.0
2016-Jul-25 11:32N 47°40' W 122°13'0 0.0
2016-Jul-25 10:29N 47°40' W 122°13'0 0.0
2016-Jul-25 09:33N 47°40' W 122°13'0 0.0
2016-Jul-25 08:31N 47°40' W 122°13'0 0.0
2016-Jul-25 07:31N 47°40' W 122°13'0 0.0
2016-Jul-25 06:32N 47°40' W 122°13'0 0.0
2016-Jul-25 05:27N 47°40' W 122°13'0 0.0
2016-Jul-25 04:33N 47°40' W 122°13'0 0.0
2016-Jul-25 03:31N 47°40' W 122°13'0 0.0
2016-Jul-25 02:32N 47°40' W 122°13'0 0.0
2016-Jul-25 01:32N 47°40' W 122°13'0 0.0
2016-Jul-25 00:33N 47°40' W 122°13'4 3.9
2016-Jul-24 23:33N 47°37' W 122°14'4 3.8
2016-Jul-24 22:32N 47°40' W 122°13'4 4.0
2016-Jul-24 21:32N 47°37' W 122°14'4 3.9
2016-Jul-24 20:29N 47°40' W 122°13'4 4.2
2016-Jul-24 19:33N 47°37' W 122°14'4 3.7
2016-Jul-24 18:29N 47°40' W 122°13'1 1.5
2016-Jul-24 17:29N 47°41' W 122°15'1 1.5
2016-Jul-24 16:31N 47°40' W 122°13'0 0.0
2016-Jul-24 15:29N 47°40' W 122°13'0 0.0
2016-Jul-24 14:32N 47°40' W 122°13'0 0.0
2016-Jul-24 13:33N 47°40' W 122°13'0 0.0
2016-Jul-24 12:31N 47°40' W 122°13'0 0.0
2016-Jul-24 11:31N 47°40' W 122°13'0 0.0
2016-Jul-24 10:32N 47°40' W 122°13'0 0.0
2016-Jul-24 09:33N 47°40' W 122°13'0 0.0
2016-Jul-24 08:27N 47°40' W 122°13'0 0.0
2016-Jul-24 07:31N 47°40' W 122°13'0 0.0
2016-Jul-24 06:32N 47°40' W 122°13'0 0.0
2016-Jul-24 05:32N 47°40' W 122°13'0 0.0
2016-Jul-24 04:33N 47°40' W 122°13'0 0.0
2016-Jul-24 03:31N 47°40' W 122°13'0 0.0
2016-Jul-24 02:31N 47°40' W 122°13'0 0.0
2016-Jul-24 01:32N 47°40' W 122°13'0 0.0
2016-Jul-24 00:27N 47°40' W 122°13'4 4.4
2016-Jul-23 23:33N 47°37' W 122°14'4 3.9
2016-Jul-23 22:31N 47°40' W 122°13'4 4.1
2016-Jul-23 21:33N 47°37' W 122°14'4 3.8
2016-Jul-23 20:31N 47°40' W 122°13'4 4.2
2016-Jul-23 19:33N 47°36' W 122°14'4 4.1
2016-Jul-23 18:33N 47°40' W 122°13'0 0.0
2016-Jul-23 17:31N 47°40' W 122°13'0 0.0
2016-Jul-23 16:32N 47°40' W 122°13'0 0.0
2016-Jul-23 15:32N 47°40' W 122°13'0 0.0
2016-Jul-23 14:33N 47°40' W 122°13'0 0.0
2016-Jul-23 13:31N 47°40' W 122°13'0 0.0
2016-Jul-23 12:20N 47°40' W 122°13'0 0.0
2016-Jul-23 11:32N 47°40' W 122°13'0 0.0
2016-Jul-23 10:33N 47°40' W 122°13'0 0.0
2016-Jul-23 09:33N 47°40' W 122°13'0 0.0
2016-Jul-23 08:31N 47°40' W 122°13'0 0.0
2016-Jul-23 07:32N 47°40' W 122°13'0 0.0
2016-Jul-23 06:32N 47°40' W 122°13'2 0.8
2016-Jul-23 04:33N 47°39' W 122°14'3 2.9
2016-Jul-23 03:30N 47°39' W 122°18'1 0.9
2016-Jul-23 02:33N 47°39' W 122°17'3 3.5
2016-Jul-23 01:33N 47°40' W 122°13'0 0.0
2016-Jul-23 00:33N 47°40' W 122°13'0 0.2
2016-Jul-22 23:33N 47°40' W 122°13'5 5.5
2016-Jul-22 22:33N 47°39' W 122°20'1 1.0
2016-Jul-22 21:33N 47°39' W 122°19'5 4.7
2016-Jul-22 20:33N 47°40' W 122°13'4 4.1
2016-Jul-22 19:31N 47°36' W 122°14'4 4.4
2016-Jul-22 18:33N 47°40' W 122°13'0 0.0
2016-Jul-22 17:33N 47°40' W 122°13'0 0.0
2016-Jul-22 16:33N 47°40' W 122°13'0 0.0
2016-Jul-22 15:33N 47°40' W 122°13'0 0.0
2016-Jul-22 14:33N 47°40' W 122°13'0 0.0
2016-Jul-22 13:33N 47°40' W 122°13'0 0.0
2016-Jul-22 12:33N 47°40' W 122°13'0 0.0
2016-Jul-22 11:33N 47°40' W 122°13'0 0.0
2016-Jul-22 10:33N 47°40' W 122°13'0 0.0
2016-Jul-22 09:33N 47°40' W 122°13'0 0.0
2016-Jul-22 08:33N 47°40' W 122°13'0 0.0
2016-Jul-22 07:33N 47°40' W 122°13'0 0.0
2016-Jul-22 04:33N 47°40' W 122°13'0 0.0
2016-Jul-22 03:33N 47°40' W 122°13'0 0.0
2016-Jul-22 02:33N 47°40' W 122°13'0 0.0
2016-Jul-22 01:33N 47°40' W 122°13'0 0.0
2016-Jul-22 00:33N 47°40' W 122°13'3 2.8
2016-Jul-21 23:33N 47°38' W 122°15'3 2.8
2016-Jul-21 22:33N 47°40' W 122°13'0 0.0
2016-Jul-21 21:33N 47°40' W 122°13'0 0.0
2016-Jul-21 20:33N 47°40' W 122°13'3 3.4
2016-Jul-21 19:33N 47°37' W 122°15'3 3.4
2016-Jul-21 18:33N 47°40' W 122°13'1 1.0
2016-Jul-21 17:33N 47°40' W 122°14'1 1.0
2016-Jul-21 16:32N 47°40' W 122°13'0 0.0
2016-Jul-21 15:29N 47°40' W 122°13'0 0.0
2016-Jul-21 14:27N 47°40' W 122°13'0 0.0
2016-Jul-21 13:31N 47°40' W 122°13'0 0.0
2016-Jul-21 12:31N 47°40' W 122°13'0 0.0
2016-Jul-21 11:32N 47°40' W 122°13'0 0.0
2016-Jul-21 10:33N 47°40' W 122°13'0 0.0
2016-Jul-21 09:33N 47°40' W 122°13'0 0.0
2016-Jul-21 08:31N 47°40' W 122°13'0 0.0
2016-Jul-21 07:32N 47°40' W 122°13'0 0.0
2016-Jul-21 06:32N 47°40' W 122°13'0 0.0
2016-Jul-21 05:33N 47°40' W 122°13'0 0.0
2016-Jul-21 04:31N 47°40' W 122°13'0 0.0
2016-Jul-21 03:31N 47°40' W 122°13'0 0.0
2016-Jul-21 02:26N 47°40' W 122°13'0 0.0
2016-Jul-21 01:19N 47°40' W 122°13'0 0.0
2016-Jul-21 00:33N 47°40' W 122°13'3 3.5
2016-Jul-20 23:33N 47°37' W 122°15'3 3.5
2016-Jul-20 22:33N 47°40' W 122°13'0 0.0
2016-Jul-20 21:33N 47°40' W 122°13'0 0.0
2016-Jul-20 20:33N 47°40' W 122°13'4 4.2
2016-Jul-20 19:33N 47°36' W 122°14'4 4.2
2016-Jul-20 18:33N 47°40' W 122°13'0 0.0
2016-Jul-20 17:31N 47°40' W 122°13'0 0.0
2016-Jul-20 16:31N 47°40' W 122°13'0 0.0
2016-Jul-20 15:32N 47°40' W 122°13'0 0.0
2016-Jul-20 14:33N 47°40' W 122°13'0 0.0
2016-Jul-20 13:33N 47°40' W 122°13'0 0.0
2016-Jul-20 12:31N 47°40' W 122°13'0 0.0
2016-Jul-20 11:29N 47°40' W 122°13'0 0.0
2016-Jul-20 10:32N 47°40' W 122°13'0 0.0
2016-Jul-20 09:33N 47°40' W 122°13'0 0.0
2016-Jul-20 08:31N 47°40' W 122°13'0 0.0
2016-Jul-20 07:31N 47°40' W 122°13'0 0.0
2016-Jul-20 06:32N 47°40' W 122°13'0 0.0
2016-Jul-20 05:30N 47°40' W 122°13'0 0.0
2016-Jul-20 04:33N 47°40' W 122°13'0 0.0
2016-Jul-20 03:31N 47°40' W 122°13'0 0.0
2016-Jul-20 02:29N 47°40' W 122°13'0 0.0
2016-Jul-20 01:33N 47°40' W 122°13'0 0.0
2016-Jul-20 00:30N 47°40' W 122°13'0 0.0
2016-Jul-19 23:31N 47°40' W 122°13'0 0.0
2016-Jul-19 22:32N 47°40' W 122°13'0 0.0
2016-Jul-19 21:32N 47°40' W 122°13'0 0.0
2016-Jul-19 20:33N 47°40' W 122°13'4 4.1
2016-Jul-19 19:32N 47°36' W 122°14'4 4.3
2016-Jul-19 18:33N 47°40' W 122°13'0 0.0
2016-Jul-19 17:28N 47°40' W 122°13'0 0.0
2016-Jul-19 16:29N 47°40' W 122°13'0 0.0
2016-Jul-19 15:32N 47°40' W 122°13'0 0.0
2016-Jul-19 14:33N 47°40' W 122°13'0 0.0
2016-Jul-19 13:31N 47°40' W 122°13'0 0.0
2016-Jul-19 12:31N 47°40' W 122°13'0 0.0
2016-Jul-19 11:32N 47°40' W 122°13'0 0.0
2016-Jul-19 10:33N 47°40' W 122°13'0 0.0
2016-Jul-19 09:33N 47°40' W 122°13'0 0.0
2016-Jul-19 08:31N 47°40' W 122°13'0 0.0
2016-Jul-19 07:32N 47°40' W 122°13'0 0.0
2016-Jul-19 04:28N 47°40' W 122°13'0 0.0
2016-Jul-19 03:31N 47°40' W 122°13'0 0.0
2016-Jul-19 02:32N 47°40' W 122°13'0 0.0
2016-Jul-19 01:33N 47°40' W 122°13'0 0.0
2016-Jul-19 00:33N 47°40' W 122°13'0 0.0
2016-Jul-18 23:28N 47°40' W 122°13'0 0.0
2016-Jul-18 22:32N 47°40' W 122°13'0 0.0
2016-Jul-18 21:29N 47°40' W 122°13'0 0.0
2016-Jul-18 20:33N 47°40' W 122°13'4 3.8
2016-Jul-18 19:33N 47°37' W 122°15'4 3.8
2016-Jul-18 18:33N 47°40' W 122°13'2 2.4
2016-Jul-18 17:33N 47°39' W 122°16'6 5.7
2016-Jul-18 16:33N 47°40' W 122°24'2 2.0
2016-Jul-18 15:33N 47°38' W 122°25'4 0.3
2016-Jul-18 03:33N 47°36' W 122°20'5 4.6
2016-Jul-18 02:34N 47°34' W 122°26'9 9.0
2016-Jul-18 01:34N 47°26' W 122°31'8 8.5
2016-Jul-18 00:34N 47°17' W 122°28'2 2.4
2016-Jul-17 23:33N 47°17' W 122°25'1 1.5
2016-Jul-17 22:34N 47°16' W 122°26'0 0.0
2016-Jul-17 21:23N 47°16' W 122°26'2 1.8
2016-Jul-17 20:29N 47°16' W 122°24'2 1.7
2016-Jul-17 19:33N 47°16' W 122°26'0 0.0
2016-Jul-17 18:33N 47°16' W 122°26'  

Dump ship's entire track history